Time;durP1;ratioP1;P1;durP2;ratioP2;P2;SDS_P1;SDS_P2;PMS_P1;PMS_P2;Temp;Humidity;BMP_temperature;BMP_pressure;BME280_temperature;BME280_humidity;BME280_pressure;Samples;Min_cycle;Max_cycle;Signal;HPM_P1;HPM_P2
2022/05/11 00:01:56;;;;;;;13.57;3.00;;;22.70;40.40;;;;;;5035932;28;20060;-46
2022/05/11 00:04:24;;;;;;;7.82;3.42;;;22.60;40.40;;;;;;5037445;28;20049;-44
2022/05/11 00:06:51;;;;;;;8.15;3.80;;;22.60;40.70;;;;;;5038059;28;20068;-44
2022/05/11 00:09:19;;;;;;;9.98;3.85;;;22.60;40.90;;;;;;5039450;28;20049;-44
2022/05/11 00:11:46;;;;;;;5.05;3.70;;;22.60;41.10;;;;;;5036544;28;20052;-45
2022/05/11 00:14:15;;;;;;;5.40;3.65;;;22.50;41.30;;;;;;5039855;28;20932;-44
2022/05/11 00:16:42;;;;;;;8.88;4.13;;;22.50;41.50;;;;;;5040738;28;20049;-46
2022/05/11 00:19:10;;;;;;;7.38;4.15;;;22.50;41.60;;;;;;5037374;28;20052;-44
2022/05/11 00:21:37;;;;;;;7.13;4.35;;;22.40;41.70;;;;;;5036458;28;20049;-47
2022/05/11 00:24:06;;;;;;;7.88;4.50;;;22.40;41.80;;;;;;5037343;28;20057;-44
2022/05/11 00:26:33;;;;;;;8.82;4.00;;;22.40;42.00;;;;;;5038514;28;20052;-44
2022/05/11 00:29:00;;;;;;;7.78;4.28;;;22.30;42.10;;;;;;5039812;28;20060;-45
2022/05/11 00:31:29;;;;;;;8.55;4.68;;;22.30;42.20;;;;;;5037639;28;20064;-44
2022/05/11 00:33:58;;;;;;;8.68;4.50;;;22.30;42.40;;;;;;5035972;28;20049;-44
2022/05/11 00:36:26;;;;;;;15.73;3.72;;;22.20;42.30;;;;;;5039323;28;20048;-45
2022/05/11 00:38:53;;;;;;;7.10;4.30;;;22.20;42.90;;;;;;5040499;28;20060;-44
2022/05/11 00:41:21;;;;;;;8.73;4.85;;;22.20;42.60;;;;;;5038090;28;20057;-44
2022/05/11 00:43:55;;;;;;;8.90;4.80;;;22.10;42.70;;;;;;5033856;28;20808;-44
2022/05/11 00:46:28;;;;;;;8.97;4.50;;;22.10;42.90;;;;;;5037753;28;20591;-44
2022/05/11 00:51:48;;;;;;;11.05;4.72;;;22.00;43.10;;;;;;5041034;28;20514;-44
2022/05/11 00:54:18;;;;;;;11.10;5.53;;;22.00;43.10;;;;;;5039017;28;20049;-45
2022/05/11 00:56:50;;;;;;;9.20;4.90;;;22.00;43.20;;;;;;5039831;28;20048;-45
2022/05/11 00:59:22;;;;;;;10.15;5.22;;;21.90;43.40;;;;;;5037498;28;20423;-45
2022/05/11 01:01:51;;;;;;;8.85;4.55;;;21.90;43.50;;;;;;5034886;28;20409;-45
2022/05/11 01:04:21;;;;;;;9.30;4.82;;;21.90;43.50;;;;;;5037247;28;20065;-48
2022/05/11 01:06:49;;;;;;;12.05;6.03;;;21.80;43.70;;;;;;5038626;28;20412;-44
2022/05/11 01:09:16;;;;;;;10.60;5.10;;;21.80;43.70;;;;;;5037203;28;20484;-45
2022/05/11 01:11:48;;;;;;;11.10;5.85;;;21.70;43.80;;;;;;5035290;28;20045;-44
2022/05/11 01:14:23;;;;;;;11.07;5.72;;;21.70;44.00;;;;;;5038065;28;20057;-44
2022/05/11 01:16:51;;;;;;;12.95;6.22;;;21.70;44.10;;;;;;5038154;28;20562;-44
2022/05/11 01:19:26;;;;;;;12.65;5.20;;;21.70;44.10;;;;;;5037282;28;20057;-44
2022/05/11 01:21:58;;;;;;;11.13;5.95;;;21.60;44.30;;;;;;5036043;28;20053;-45
2022/05/11 01:24:33;;;;;;;7.55;5.18;;;21.60;44.30;;;;;;5039118;28;20393;-45
2022/05/11 01:27:27;;;;;;;10.60;5.53;;;21.50;44.40;;;;;;5038986;28;20055;-48
2022/05/11 01:29:57;;;;;;;14.48;6.63;;;21.50;44.50;;;;;;5040162;28;20484;-44
2022/05/11 01:32:26;;;;;;;9.98;4.72;;;21.50;44.50;;;;;;5034299;28;20057;-45
2022/05/11 01:34:59;;;;;;;8.75;4.50;;;21.50;44.60;;;;;;5036088;28;20052;-44
2022/05/11 01:37:26;;;;;;;6.32;4.70;;;21.40;44.80;;;;;;5035540;28;20060;-46
2022/05/11 01:39:55;;;;;;;9.35;5.50;;;21.40;44.90;;;;;;5034275;28;20053;-44
2022/05/11 01:42:22;;;;;;;11.50;5.60;;;21.30;45.10;;;;;;5036087;28;20457;-44
2022/05/11 01:44:50;;;;;;;7.60;5.07;;;21.30;45.20;;;;;;5035776;28;20049;-45
2022/05/11 01:47:17;;;;;;;8.35;4.72;;;21.30;45.20;;;;;;5036941;28;20053;-44
2022/05/11 01:49:45;;;;;;;5.70;4.53;;;21.30;45.40;;;;;;5036939;28;20049;-47
2022/05/11 01:52:12;;;;;;;8.55;4.10;;;21.30;45.50;;;;;;5035243;28;20068;-44
2022/05/11 01:54:40;;;;;;;9.45;4.68;;;21.20;46.10;;;;;;5038424;28;20519;-46
2022/05/11 01:57:09;;;;;;;7.15;4.72;;;21.20;45.70;;;;;;5038502;28;20056;-44
2022/05/11 01:59:36;;;;;;;9.77;5.28;;;21.10;45.90;;;;;;5038369;28;20057;-46
2022/05/11 02:02:04;;;;;;;7.03;4.70;;;21.10;46.00;;;;;;5038095;28;20053;-44
2022/05/11 02:10:01;;;;;;;14.68;5.32;;;21.00;46.10;;;;;;5045515;28;20059;-45
2022/05/11 02:12:29;;;;;;;10.90;5.07;;;21.00;46.30;;;;;;5040872;28;20477;-47
2022/05/11 02:14:57;;;;;;;6.20;4.63;;;20.90;46.40;;;;;;5042550;28;20064;-44
2022/05/11 02:17:25;;;;;;;10.52;5.93;;;20.90;46.40;;;;;;5040712;28;20416;-44
2022/05/11 02:19:52;;;;;;;6.88;4.70;;;20.90;46.60;;;;;;5039943;28;20056;-44
2022/05/11 02:22:20;;;;;;;8.43;5.10;;;20.80;46.60;;;;;;5039010;28;20407;-47
2022/05/11 02:24:47;;;;;;;9.52;4.72;;;20.80;46.70;;;;;;5040267;28;20052;-46
2022/05/11 02:27:15;;;;;;;8.05;5.03;;;20.70;46.70;;;;;;5041400;28;20053;-44
2022/05/11 02:29:43;;;;;;;6.85;4.68;;;20.70;46.80;;;;;;5042254;28;20211;-44
2022/05/11 02:32:11;;;;;;;6.53;4.68;;;20.70;46.90;;;;;;5034869;28;20079;-45
2022/05/11 02:37:23;;;;;;;8.50;5.32;;;20.60;47.00;;;;;;5046847;28;20064;-44
2022/05/11 02:39:51;;;;;;;6.47;4.93;;;20.60;47.10;;;;;;5043286;28;20076;-45
2022/05/11 02:42:18;;;;;;;8.43;5.53;;;20.60;47.20;;;;;;5042787;28;20052;-44
2022/05/11 02:44:47;;;;;;;8.15;4.90;;;20.50;47.30;;;;;;5041969;28;20053;-44
2022/05/11 02:47:15;;;;;;;8.05;4.88;;;20.50;47.40;;;;;;5039108;28;20496;-45
2022/05/11 02:49:44;;;;;;;6.93;4.32;;;20.50;47.40;;;;;;5040646;28;20056;-44
2022/05/11 02:52:14;;;;;;;8.07;5.20;;;20.40;47.40;;;;;;5040142;28;20052;-44
2022/05/11 02:54:42;;;;;;;8.32;5.03;;;20.40;47.60;;;;;;5042037;28;20059;-46
2022/05/11 02:57:10;;;;;;;10.70;5.82;;;20.40;47.70;;;;;;5039132;28;20477;-43
2022/05/11 02:59:37;;;;;;;7.53;5.20;;;20.30;47.80;;;;;;5042140;28;20052;-46
2022/05/11 03:02:06;;;;;;;9.65;5.13;;;20.30;47.90;;;;;;5036663;28;20059;-44
2022/05/11 03:04:34;;;;;;;7.43;4.60;;;20.30;48.00;;;;;;5039194;28;20055;-44
2022/05/11 03:07:01;;;;;;;6.70;5.30;;;20.20;48.00;;;;;;5040193;28;20055;-45
2022/05/11 03:09:29;;;;;;;6.43;5.38;;;20.20;47.90;;;;;;5041782;28;20049;-49
2022/05/11 03:11:56;;;;;;;9.32;5.05;;;20.20;48.00;;;;;;5038969;28;20045;-45
2022/05/11 03:14:24;;;;;;;8.93;5.30;;;20.10;48.10;;;;;;5040642;28;20080;-46
2022/05/11 03:16:51;;;;;;;6.82;4.70;;;20.10;48.30;;;;;;5041761;28;20063;-44
2022/05/11 03:19:20;;;;;;;12.95;5.45;;;20.10;48.30;;;;;;5039113;28;20056;-44
2022/05/11 03:21:48;;;;;;;9.82;4.97;;;20.10;48.50;;;;;;5014901;28;20063;-44
2022/05/11 03:24:15;;;;;;;8.35;5.85;;;20.00;48.40;;;;;;5057595;28;20485;-44
2022/05/11 03:26:43;;;;;;;9.45;5.45;;;20.00;48.50;;;;;;5061421;28;20049;-45
2022/05/11 03:29:11;;;;;;;9.18;4.80;;;20.00;48.50;;;;;;5058174;28;20052;-45
2022/05/11 03:31:39;;;;;;;7.57;4.93;;;20.00;48.60;;;;;;5058705;28;20056;-44
2022/05/11 03:36:54;;;;;;;7.70;5.32;;;20.00;48.80;;;;;;5046542;28;20178;-46
2022/05/11 03:39:22;;;;;;;9.65;5.35;;;20.00;48.90;;;;;;5061610;28;20523;-44
2022/05/11 03:41:49;;;;;;;6.20;4.93;;;20.00;49.00;;;;;;5059578;28;20419;-45
2022/05/11 03:44:17;;;;;;;7.50;5.35;;;20.00;49.10;;;;;;5058998;28;20067;-44
2022/05/11 03:46:44;;;;;;;8.63;5.53;;;20.00;49.10;;;;;;5060080;28;20064;-45
2022/05/11 03:49:12;;;;;;;8.75;5.10;;;19.90;49.20;;;;;;5058661;28;20052;-44
2022/05/11 03:51:39;;;;;;;6.93;4.88;;;19.90;49.20;;;;;;5058541;28;20736;-45
2022/05/11 03:54:08;;;;;;;12.80;5.72;;;19.90;49.20;;;;;;5061148;28;20052;-44
2022/05/11 03:56:36;;;;;;;9.93;5.30;;;19.90;49.30;;;;;;5060311;28;20048;-46
2022/05/11 03:59:03;;;;;;;6.82;5.50;;;19.90;49.30;;;;;;5060072;28;20045;-46
2022/05/11 04:01:31;;;;;;;6.25;4.65;;;19.80;49.30;;;;;;5059382;28;20063;-45
2022/05/11 04:03:58;;;;;;;8.82;5.18;;;19.80;49.30;;;;;;5059737;28;20523;-44
2022/05/11 04:06:26;;;;;;;7.07;5.10;;;19.80;49.40;;;;;;5059854;28;20411;-45
2022/05/11 04:08:53;;;;;;;5.72;4.82;;;19.80;49.40;;;;;;5060524;28;20055;-49
2022/05/11 04:11:23;;;;;;;5.53;3.92;;;19.80;49.40;;;;;;5058861;28;20063;-45
2022/05/11 04:13:50;;;;;;;8.80;5.50;;;19.80;49.50;;;;;;5059146;28;20060;-45
2022/05/11 04:16:18;;;;;;;5.95;4.40;;;19.80;49.50;;;;;;5052457;28;20290;-45
2022/05/11 04:18:46;;;;;;;7.32;4.50;;;19.80;49.50;;;;;;5055500;28;20491;-45
2022/05/11 04:21:14;;;;;;;5.68;4.07;;;19.80;49.40;;;;;;5057722;28;20067;-44
2022/05/11 04:23:42;;;;;;;6.97;3.75;;;19.70;49.50;;;;;;5057464;28;20420;-44
2022/05/11 04:26:11;;;;;;;6.28;4.80;;;19.80;49.50;;;;;;5049073;28;20055;-46
2022/05/11 04:28:43;;;;;;;7.57;3.95;;;19.70;49.60;;;;;;5044438;28;20816;-45
2022/05/11 04:31:12;;;;;;;7.00;4.28;;;19.70;49.30;;;;;;5052572;28;20055;-45
2022/05/11 04:33:41;;;;;;;7.60;3.78;;;19.70;49.30;;;;;;5059604;28;20059;-46
2022/05/11 04:36:10;;;;;;;6.28;3.50;;;19.70;49.30;;;;;;5061030;28;20534;-45
2022/05/11 04:38:38;;;;;;;4.85;3.67;;;19.70;49.30;;;;;;5061894;28;20503;-46
2022/05/11 04:41:05;;;;;;;5.53;4.10;;;19.70;49.20;;;;;;5061362;28;20053;-44
2022/05/11 04:43:33;;;;;;;5.53;3.60;;;19.70;49.20;;;;;;5058118;28;20048;-46
2022/05/11 04:46:02;;;;;;;3.78;3.05;;;19.70;49.20;;;;;;5051801;28;20052;-44
2022/05/11 04:48:29;;;;;;;4.13;3.03;;;19.70;49.20;;;;;;5051442;28;20111;-45
2022/05/11 04:51:01;;;;;;;5.82;3.17;;;19.70;49.30;;;;;;5058310;28;20506;-44
2022/05/11 04:53:29;;;;;;;4.03;3.03;;;19.80;49.50;;;;;;5058099;28;20056;-44
2022/05/11 04:55:57;;;;;;;5.95;3.33;;;19.80;49.40;;;;;;5058411;28;20127;-47
2022/05/11 04:58:24;;;;;;;5.03;3.45;;;19.80;49.50;;;;;;5056649;28;20056;-47
2022/05/11 05:00:54;;;;;;;6.35;4.45;;;19.80;49.50;;;;;;5057110;28;20476;-44
2022/05/11 05:03:23;;;;;;;7.18;4.43;;;19.80;49.70;;;;;;5055492;28;20063;-44
2022/05/11 05:05:51;;;;;;;14.07;5.70;;;19.80;49.60;;;;;;5058876;28;20056;-45
2022/05/11 05:08:18;;;;;;;6.65;4.40;;;19.80;49.50;;;;;;5054561;28;20411;-45
2022/05/11 05:10:46;;;;;;;9.93;3.80;;;19.80;49.50;;;;;;5053557;28;20411;-46
2022/05/11 05:13:14;;;;;;;5.85;3.67;;;19.80;49.60;;;;;;5052382;28;20056;-44
2022/05/11 05:15:43;;;;;;;8.43;3.58;;;19.90;49.70;;;;;;5056563;28;20053;-44
2022/05/11 05:18:11;;;;;;;7.55;3.28;;;19.90;49.70;;;;;;5054595;28;20045;-46
2022/05/11 05:20:40;;;;;;;4.35;2.83;;;19.90;49.60;;;;;;5057066;28;20061;-44
2022/05/11 05:23:08;;;;;;;4.60;3.00;;;19.90;49.80;;;;;;5055168;28;20060;-49
2022/05/11 05:25:35;;;;;;;6.60;3.10;;;20.00;49.70;;;;;;5053828;28;20052;-46
2022/05/11 05:31:06;;;;;;;4.07;3.15;;;20.00;49.60;;;;;;5054609;28;20140;-47
2022/05/11 05:33:34;;;;;;;5.38;2.90;;;20.00;49.70;;;;;;5038288;28;20052;-44
2022/05/11 05:36:03;;;;;;;5.20;3.17;;;20.00;49.80;;;;;;5053932;28;20067;-44
2022/05/11 05:38:31;;;;;;;8.20;4.53;;;20.00;49.90;;;;;;5052216;28;20518;-45
2022/05/11 05:40:58;;;;;;;6.38;4.30;;;20.10;50.00;;;;;;5058264;28;20052;-44
2022/05/11 05:43:26;;;;;;;4.40;3.28;;;20.10;50.00;;;;;;5055553;28;20063;-44
2022/05/11 05:45:55;;;;;;;3.80;2.85;;;20.10;50.00;;;;;;5055635;28;20052;-44
2022/05/11 05:48:24;;;;;;;6.13;3.45;;;20.20;50.10;;;;;;5039323;28;20630;-44
2022/05/11 05:50:51;;;;;;;3.42;2.92;;;20.20;50.20;;;;;;5051133;28;20052;-45
2022/05/11 05:53:21;;;;;;;11.93;3.70;;;20.30;50.30;;;;;;5038343;28;20056;-46
2022/05/11 05:55:50;;;;;;;4.85;3.13;;;20.30;50.40;;;;;;5051201;28;20507;-44
2022/05/11 05:58:18;;;;;;;4.65;2.85;;;20.40;50.40;;;;;;5054696;28;20057;-44
2022/05/11 06:00:46;;;;;;;4.68;3.00;;;20.40;50.40;;;;;;5059446;28;20142;-44
2022/05/11 06:03:19;;;;;;;3.95;2.88;;;20.50;50.40;;;;;;5056957;28;20049;-45
2022/05/11 06:05:46;;;;;;;5.53;3.42;;;20.60;50.50;;;;;;5061379;28;20709;-44
2022/05/11 06:08:16;;;;;;;4.47;3.25;;;20.60;50.40;;;;;;5059118;28;20057;-45
2022/05/11 06:10:45;;;;;;;4.97;2.85;;;20.70;50.30;;;;;;5060711;28;20056;-44
2022/05/11 06:13:14;;;;;;;3.72;2.72;;;20.80;50.40;;;;;;5057460;28;20510;-44
2022/05/11 06:15:42;;;;;;;7.00;2.97;;;20.80;50.20;;;;;;5060831;28;20071;-44
2022/05/11 06:18:11;;;;;;;7.22;2.65;;;20.90;50.20;;;;;;5058543;28;20388;-46
2022/05/11 06:20:39;;;;;;;7.53;3.40;;;21.00;49.90;;;;;;5057544;28;20052;-44
2022/05/11 06:23:07;;;;;;;6.95;3.17;;;21.10;49.20;;;;;;5060833;28;20439;-46
2022/05/11 06:25:38;;;;;;;6.20;2.78;;;21.10;49.00;;;;;;5060706;28;20057;-44
2022/05/11 06:28:08;;;;;;;4.45;2.72;;;21.20;49.00;;;;;;5060765;28;20381;-44
2022/05/11 06:30:35;;;;;;;5.72;2.58;;;21.30;49.10;;;;;;5060811;28;20048;-44
2022/05/11 06:33:04;;;;;;;7.82;2.65;;;21.30;48.60;;;;;;5061420;28;20085;-45
2022/05/11 06:35:31;;;;;;;3.42;2.58;;;21.40;48.30;;;;;;5063523;28;20063;-44
2022/05/11 06:38:03;;;;;;;6.70;2.85;;;21.50;47.80;;;;;;5063907;28;20048;-46
2022/05/11 06:40:31;;;;;;;4.18;2.28;;;21.60;47.60;;;;;;5063976;28;20511;-44
2022/05/11 06:42:59;;;;;;;12.32;3.13;;;21.60;47.40;;;;;;5063686;28;20063;-44
2022/05/11 06:45:29;;;;;;;5.68;2.88;;;21.70;47.00;;;;;;5061053;28;20052;-46
2022/05/11 06:47:56;;;;;;;3.63;2.60;;;21.80;47.10;;;;;;5041822;28;20061;-50
2022/05/11 06:50:26;;;;;;;4.95;2.40;;;21.80;46.70;;;;;;5052601;28;20060;-49
2022/05/11 06:52:54;;;;;;;5.60;2.75;;;21.90;46.70;;;;;;5056281;28;20060;-44
2022/05/11 07:00:52;;;;;;;4.40;2.40;;;22.10;46.50;;;;;;5063676;28;20052;-46
2022/05/11 07:03:20;;;;;;;3.38;2.58;;;22.20;46.10;;;;;;5055841;28;21112;-44
2022/05/11 07:05:47;;;;;;;3.42;2.40;;;22.20;45.60;;;;;;5052107;28;20139;-44
2022/05/11 07:08:15;;;;;;;5.47;2.20;;;22.30;45.60;;;;;;5061467;28;20056;-44
2022/05/11 07:12:17;;;;;;;5.45;2.42;;;22.40;45.10;;;;;;5057368;28;20060;-47
2022/05/11 07:13:31;;;;;;;4.38;2.65;;;22.40;44.90;;;;;;5055075;28;20060;-49
2022/05/11 07:16:00;;;;;;;5.95;2.10;;;22.50;45.00;;;;;;5057521;28;20408;-50
2022/05/11 07:18:27;;;;;;;6.20;2.53;;;22.50;45.20;;;;;;5060246;28;20060;-44
2022/05/11 07:20:55;;;;;;;4.57;2.38;;;22.60;45.00;;;;;;5056157;28;20044;-44
2022/05/11 07:23:24;;;;;;;3.85;2.13;;;22.60;44.90;;;;;;5055136;28;20052;-44
2022/05/11 07:25:51;;;;;;;7.60;3.00;;;22.70;45.00;;;;;;5057605;28;20739;-44
2022/05/11 07:28:19;;;;;;;6.78;2.90;;;22.80;44.70;;;;;;5061963;28;20056;-44
2022/05/11 07:30:47;;;;;;;5.82;2.30;;;22.80;44.70;;;;;;5059603;28;20057;-46
2022/05/11 07:33:16;;;;;;;7.00;2.97;;;22.90;44.50;;;;;;5055994;28;20048;-47
2022/05/11 07:35:45;;;;;;;5.45;3.00;;;22.90;44.30;;;;;;5059272;28;20063;-46
2022/05/11 07:38:15;;;;;;;4.43;2.30;;;23.00;43.90;;;;;;5055871;28;20051;-45
2022/05/11 07:40:43;;;;;;;4.38;2.70;;;23.00;43.60;;;;;;5061200;28;20051;-44
2022/05/11 07:43:11;;;;;;;3.50;2.55;;;23.10;43.70;;;;;;5055382;28;20376;-44
2022/05/11 07:45:40;;;;;;;5.20;2.40;;;23.20;43.90;;;;;;5057374;28;20063;-45
2022/05/11 07:48:09;;;;;;;6.07;2.63;;;23.20;44.00;;;;;;5058105;28;20071;-46
2022/05/11 07:50:38;;;;;;;4.82;2.67;;;23.20;43.50;;;;;;5059089;28;20064;-46
2022/05/11 07:53:06;;;;;;;4.85;2.60;;;23.30;43.10;;;;;;5060077;28;20060;-46
2022/05/11 07:55:36;;;;;;;6.47;2.50;;;23.30;43.00;;;;;;5058919;28;20045;-45
2022/05/11 08:00:48;;;;;;;4.50;2.95;;;23.40;43.20;;;;;;5058873;28;20504;-46
2022/05/11 08:03:16;;;;;;;5.25;2.42;;;23.50;43.30;;;;;;5057949;28;20060;-44
2022/05/11 08:05:44;;;;;;;8.45;3.65;;;23.60;43.40;;;;;;5051985;28;20122;-46
2022/05/11 08:08:12;;;;;;;11.70;6.05;;;23.60;43.20;;;;;;5053673;28;20049;-47
2022/05/11 08:10:42;;;;;;;6.65;3.30;;;23.60;42.90;;;;;;5059591;28;20074;-45
2022/05/11 08:13:10;;;;;;;5.03;2.88;;;23.70;42.80;;;;;;5051269;28;20060;-45
2022/05/11 08:15:39;;;;;;;4.35;2.53;;;23.70;42.80;;;;;;5044036;28;20056;-45
2022/05/11 08:18:08;;;;;;;7.55;3.03;;;23.80;43.00;;;;;;5057548;28;20522;-45
2022/05/11 08:20:37;;;;;;;6.50;2.63;;;23.80;42.80;;;;;;5057165;28;20044;-46
2022/05/11 08:23:07;;;;;;;9.70;3.25;;;23.80;42.80;;;;;;5051511;28;20052;-47
2022/05/11 08:25:37;;;;;;;6.68;2.95;;;23.80;42.80;;;;;;5052185;28;20078;-44
2022/05/11 08:28:11;;;;;;;2.50;2.30;;;23.90;43.00;;;;;;5053778;28;20063;-44
2022/05/11 08:33:40;;;;;;;5.45;2.95;;;24.00;43.10;;;;;;4952665;28;20043;-44
2022/05/11 08:36:11;;;;;;;4.63;3.13;;;24.10;42.80;;;;;;5029077;28;20054;-44
2022/05/11 08:38:42;;;;;;;6.85;2.90;;;24.10;43.00;;;;;;5059113;28;20064;-44
2022/05/11 08:41:19;;;;;;;3.70;2.67;;;24.10;43.00;;;;;;5043605;28;20057;-44
2022/05/11 08:43:49;;;;;;;4.88;2.47;;;24.20;43.00;;;;;;5042094;28;20060;-44
2022/05/11 08:46:29;;;;;;;4.10;2.85;;;24.20;43.00;;;;;;5039562;28;20057;-44
2022/05/11 08:49:00;;;;;;;5.00;2.53;;;24.30;43.00;;;;;;5042527;28;20056;-45
2022/05/11 08:51:33;;;;;;;8.02;2.83;;;24.30;42.90;;;;;;5045636;28;20056;-45
2022/05/11 08:54:14;;;;;;;4.15;2.70;;;24.40;43.30;;;;;;5057534;28;20054;-45
2022/05/11 08:56:44;;;;;;;8.63;2.70;;;24.50;43.70;;;;;;5059009;28;20052;-44
2022/05/11 08:59:19;;;;;;;7.05;3.05;;;24.50;43.00;;;;;;5058204;28;20052;-44
2022/05/11 09:01:51;;;;;;;3.35;2.47;;;24.60;42.70;;;;;;5049773;28;20053;-46
2022/05/11 09:04:23;;;;;;;5.57;3.05;;;24.70;42.20;;;;;;5048863;28;20063;-44
2022/05/11 09:06:50;;;;;;;5.03;2.90;;;24.70;41.80;;;;;;5049175;28;20401;-42
2022/05/11 09:09:19;;;;;;;11.25;2.70;;;24.80;41.30;;;;;;5047088;28;20061;-49
2022/05/11 09:11:50;;;;;;;6.25;2.25;;;24.80;40.40;;;;;;5045917;28;20049;-45
2022/05/11 09:14:23;;;;;;;2.95;2.03;;;24.80;40.30;;;;;;5046967;28;20053;-47
2022/05/11 09:16:52;;;;;;;3.20;2.37;;;24.90;40.40;;;;;;5062862;28;20563;-44
2022/05/11 09:19:22;;;;;;;8.52;2.60;;;25.00;40.50;;;;;;5063198;28;20061;-44
2022/05/11 09:21:52;;;;;;;5.10;2.60;;;25.10;40.00;;;;;;5064929;28;20502;-45
2022/05/11 09:24:29;;;;;;;4.00;2.10;;;25.10;39.20;;;;;;5065345;28;20622;-44
2022/05/11 09:27:09;;;;;;;9.25;2.78;;;25.20;39.10;;;;;;5065068;28;20055;-48
2022/05/11 09:29:41;;;;;;;3.83;2.55;;;25.30;39.20;;;;;;5064388;28;20052;-44
2022/05/11 09:32:29;;;;;;;3.80;2.40;;;25.40;39.80;;;;;;5060891;28;20067;-44
2022/05/11 09:34:58;;;;;;;9.13;2.90;;;25.50;39.50;;;;;;5061479;28;20056;-41
2022/05/11 09:37:32;;;;;;;7.05;2.60;;;25.60;39.20;;;;;;5063371;28;20055;-44
2022/05/11 09:40:12;;;;;;;5.55;2.67;;;25.60;38.70;;;;;;5063306;28;20056;-44
2022/05/11 09:42:50;;;;;;;4.13;2.33;;;25.70;38.90;;;;;;5063131;28;20400;-44
2022/05/11 09:45:44;;;;;;;5.90;2.72;;;25.80;39.00;;;;;;5061865;28;20376;-44
2022/05/11 09:48:17;;;;;;;10.65;2.60;;;25.90;38.80;;;;;;5060931;28;20052;-44
2022/05/11 09:50:45;;;;;;;4.55;2.72;;;26.00;38.70;;;;;;5061137;28;20484;-45
2022/05/11 09:53:27;;;;;;;8.13;2.67;;;26.10;38.60;;;;;;5056662;28;20060;-45
2022/05/11 09:55:56;;;;;;;6.50;2.45;;;26.20;38.70;;;;;;5062263;28;20545;-44
2022/05/11 09:58:32;;;;;;;4.97;2.25;;;26.30;38.50;;;;;;5060956;28;20053;-45
2022/05/11 10:01:11;;;;;;;5.28;2.45;;;26.40;37.80;;;;;;5057719;28;20053;-44
2022/05/11 10:03:43;;;;;;;5.50;3.05;;;26.50;37.60;;;;;;5055559;28;20060;-44
2022/05/11 10:06:13;;;;;;;5.82;2.50;;;26.50;36.90;;;;;;5060860;28;20060;-42
2022/05/11 10:08:44;;;;;;;8.48;2.45;;;26.60;36.60;;;;;;5059715;28;20049;-42
2022/05/11 10:11:19;;;;;;;4.43;2.30;;;26.70;36.80;;;;;;5063269;28;20049;-42
2022/05/11 10:13:58;;;;;;;7.68;2.63;;;26.70;36.00;;;;;;5062153;28;20071;-42
2022/05/11 10:22:16;;;;;;;6.57;2.55;;;26.90;36.20;;;;;;5066674;28;20051;-45
2022/05/11 10:25:03;;;;;;;3.78;2.25;;;26.90;36.70;;;;;;5062490;28;20064;-44
2022/05/11 10:27:40;;;;;;;8.70;2.60;;;27.00;36.70;;;;;;5063160;28;20051;-49
2022/05/11 10:30:14;;;;;;;10.07;3.03;;;27.00;36.30;;;;;;5060675;28;20052;-43
2022/05/11 10:32:46;;;;;;;;;;;27.10;35.70;;;;;;5060952;28;20059;-43
2022/05/11 10:35:18;;;;;;;5.30;2.28;;;27.20;36.40;;;;;;5060003;28;19921;-44
2022/05/11 10:38:12;;;;;;;8.75;2.20;;;27.20;35.70;;;;;;5063246;28;20063;-44
2022/05/11 10:40:48;;;;;;;4.13;1.92;;;27.20;35.40;;;;;;5063114;28;20057;-44
2022/05/11 10:43:42;;;;;;;4.85;2.47;;;27.30;35.60;;;;;;5058984;28;20048;-44
2022/05/11 10:46:14;;;;;;;6.28;2.35;;;27.30;35.50;;;;;;5060546;28;20056;-43
2022/05/11 10:49:01;;;;;;;11.90;2.70;;;27.30;35.20;;;;;;5059771;28;20056;-43
2022/05/11 10:51:38;;;;;;;3.90;2.40;;;27.40;34.60;;;;;;5057040;28;20484;-43
2022/05/11 10:54:15;;;;;;;5.40;2.20;;;27.40;35.30;;;;;;5062173;28;20053;-44
2022/05/11 10:56:53;;;;;;;3.10;2.33;;;27.50;35.00;;;;;;5061379;28;20415;-44
2022/05/11 10:59:40;;;;;;;3.92;2.45;;;27.50;34.60;;;;;;5060146;28;20063;-45
2022/05/11 11:02:41;;;;;;;5.45;2.35;;;27.60;34.70;;;;;;5057919;28;20044;-47
2022/05/11 11:05:13;;;;;;;3.42;2.10;;;27.70;34.50;;;;;;5054727;28;20055;-50
2022/05/11 11:07:46;;;;;;;3.63;2.38;;;27.70;34.80;;;;;;5060906;28;20060;-45
2022/05/11 11:10:30;;;;;;;7.72;2.55;;;27.80;34.40;;;;;;5061147;28;20500;-41
2022/05/11 11:13:31;;;;;;;9.07;2.47;;;27.80;33.50;;;;;;5059103;28;20056;-46
2022/05/11 11:16:03;;;;;;;3.78;2.20;;;27.90;33.80;;;;;;5061394;28;20041;-43
2022/05/11 11:18:33;;;;;;;3.65;2.05;;;27.90;33.60;;;;;;5058386;28;20056;-44
2022/05/11 11:21:03;;;;;;;3.20;2.20;;;28.00;33.50;;;;;;5058684;28;20055;-41
2022/05/11 11:23:37;;;;;;;3.58;2.30;;;27.90;33.60;;;;;;5054106;28;20771;-43
2022/05/11 11:26:07;;;;;;;5.40;2.15;;;28.00;33.50;;;;;;5061124;28;20052;-44
2022/05/11 11:29:19;;;;;;;2.97;2.03;;;28.00;33.30;;;;;;5060495;28;20052;-46
2022/05/11 11:32:16;;;;;;;4.18;2.25;;;28.00;33.90;;;;;;5056208;28;20056;-44
2022/05/11 11:34:49;;;;;;;6.28;2.20;;;28.00;33.80;;;;;;5058286;28;20059;-46
2022/05/11 11:37:36;;;;;;;6.10;2.35;;;28.10;33.00;;;;;;5061841;28;20428;-46
2022/05/11 11:40:23;;;;;;;5.90;1.92;;;28.10;32.70;;;;;;5059518;28;20048;-42
2022/05/11 11:42:52;;;;;;;8.02;2.15;;;28.10;32.70;;;;;;5058934;28;20060;-46
2022/05/11 11:46:04;;;;;;;5.57;2.30;;;28.10;32.80;;;;;;5058834;28;20052;-44
2022/05/11 11:48:35;;;;;;;10.60;2.25;;;28.20;32.80;;;;;;5037165;28;20057;-44
2022/05/11 11:51:07;;;;;;;6.07;2.30;;;28.30;33.20;;;;;;5042463;28;20060;-47
2022/05/11 11:53:39;;;;;;;8.50;2.40;;;28.30;32.70;;;;;;5035601;28;20060;-43
2022/05/11 11:56:47;;;;;;;6.40;1.88;;;28.40;33.70;;;;;;5035426;28;20051;-45
2022/05/11 11:59:33;;;;;;;5.63;2.28;;;28.40;32.60;;;;;;5038374;28;20049;-44
2022/05/11 12:02:11;;;;;;;3.97;2.30;;;28.50;32.20;;;;;;5036197;28;20415;-44
2022/05/11 12:04:45;;;;;;;6.63;2.38;;;28.60;32.60;;;;;;5036324;28;20072;-43
2022/05/11 12:16:03;;;;;;;4.47;2.38;;;28.80;31.70;;;;;;5042645;28;20059;-44
2022/05/11 12:18:33;;;;;;;4.80;2.22;;;28.90;31.70;;;;;;5033762;28;20080;-45
2022/05/11 12:21:07;;;;;;;5.68;2.08;;;28.90;32.10;;;;;;5039854;28;20041;-43
2022/05/11 12:23:37;;;;;;;7.40;2.42;;;29.00;31.70;;;;;;5035372;28;20424;-46
2022/05/11 12:26:09;;;;;;;4.95;2.00;;;29.00;30.80;;;;;;5037709;28;20115;-43
2022/05/11 12:28:39;;;;;;;5.38;2.10;;;29.00;30.50;;;;;;5039865;28;20712;-43
2022/05/11 12:31:08;;;;;;;7.68;2.40;;;29.00;30.90;;;;;;5039477;28;20049;-43
2022/05/11 12:33:39;;;;;;;4.88;2.13;;;29.00;30.40;;;;;;5021014;28;20049;-43
2022/05/11 12:36:09;;;;;;;3.45;2.10;;;29.10;30.50;;;;;;5039015;28;20057;-44
2022/05/11 12:38:38;;;;;;;4.97;2.40;;;29.10;30.40;;;;;;5035938;28;20507;-44
2022/05/11 12:41:13;;;;;;;4.18;2.00;;;29.10;31.30;;;;;;5039782;28;20053;-44
2022/05/11 12:43:49;;;;;;;4.57;2.00;;;29.10;30.60;;;;;;5036265;28;21079;-44
2022/05/11 12:46:18;;;;;;;14.15;7.43;;;29.10;30.20;;;;;;5040149;28;20061;-42
2022/05/11 12:48:54;;;;;;;6.00;2.53;;;29.10;30.00;;;;;;5045389;28;20044;-45
2022/05/11 12:51:30;;;;;;;8.73;3.70;;;29.20;29.90;;;;;;5057032;28;20052;-46
2022/05/11 12:53:59;;;;;;;8.25;2.90;;;29.20;30.00;;;;;;5058972;28;20067;-46
2022/05/11 12:56:28;;;;;;;3.47;1.88;;;29.20;30.20;;;;;;5059362;28;20056;-43
2022/05/11 12:58:58;;;;;;;5.68;2.03;;;29.30;30.20;;;;;;5057083;28;20499;-46
2022/05/11 13:01:29;;;;;;;9.48;1.55;;;29.30;30.30;;;;;;5058564;28;20385;-44
2022/05/11 13:03:59;;;;;;;2.85;1.88;;;29.30;30.20;;;;;;5056096;28;20407;-44
2022/05/11 13:06:34;;;;;;;2.92;1.90;;;29.30;30.50;;;;;;5058165;28;20515;-45
2022/05/11 13:09:08;;;;;;;4.03;1.98;;;29.40;30.00;;;;;;5059781;28;20048;-44
2022/05/11 13:11:39;;;;;;;4.32;1.75;;;29.40;29.30;;;;;;5056163;28;20056;-45
2022/05/11 13:14:15;;;;;;;3.88;1.58;;;29.40;29.30;;;;;;5054695;28;20053;-44
2022/05/11 13:16:48;;;;;;;5.70;2.15;;;29.50;29.00;;;;;;5054812;28;20056;-45
2022/05/11 13:19:23;;;;;;;7.38;1.63;;;29.50;29.00;;;;;;5054043;28;20048;-43
2022/05/11 13:21:53;;;;;;;3.08;1.60;;;29.50;28.80;;;;;;5054794;28;20575;-44
2022/05/11 13:24:38;;;;;;;3.03;1.75;;;29.50;28.90;;;;;;5056855;28;20060;-43
2022/05/11 13:27:35;;;;;;;4.60;1.60;;;29.60;28.90;;;;;;5057986;28;20491;-45
2022/05/11 13:30:08;;;;;;;7.07;1.77;;;29.60;28.70;;;;;;5059493;28;20052;-45
2022/05/11 13:32:37;;;;;;;6.27;2.07;;;29.70;28.60;;;;;;5056317;28;20057;-42
2022/05/11 13:35:27;;;;;;;4.60;1.63;;;29.70;28.80;;;;;;5058604;28;20064;-44
2022/05/11 13:38:05;;;;;;;4.35;1.98;;;29.70;28.20;;;;;;5057975;28;20049;-44
2022/05/11 13:40:35;;;;;;;2.80;1.92;;;29.70;28.20;;;;;;5058707;28;20071;-45
2022/05/11 13:43:16;;;;;;;6.10;1.73;;;29.80;28.50;;;;;;5055199;28;20052;-46
2022/05/11 13:45:54;;;;;;;2.90;1.60;;;29.80;28.80;;;;;;5054792;28;20073;-44
2022/05/11 13:48:26;;;;;;;10.48;1.95;;;29.90;28.30;;;;;;5055559;28;20061;-46
2022/05/11 13:50:53;;;;;;;5.72;2.95;;;29.90;28.10;;;;;;5055749;28;20040;-44